Webcam  Webcam


Lyn radar more information blitzortung!


Regn radar more information rain snow radar



Lokal METAR Rapport

   
EHVK - Volkel Rnlafb, Netherlands
Afstand fra station: SV 18 km
Opdateret: 04-06-2020 04:09
Overskyet  
Overskyet  
   Vind: VNV 1.5 m/s
Vind: VNV 1.5 m/s
Temperatur: 15°C
Dugpunkt: 12°C
Luftfugtighed: 82%
Barometer: 999 hPa
Skyet: Overskyet
Sigtbarhed: mere end 10 km
Sky detaljer: Delvis skyet 1300 ft,
Overskyet 1600 ft
EHVK 040209Z AUTO 30003KT 270V350 9999 SCT013 OVC016 15/12 Q0999 GRN
EDLV - Niederrhein, Germany
Afstand fra station: SØ 25 km
Opdateret: 03-06-2020 19:50
Ikke Aktuelt
Klart  
Klart  
   Vind: NV 3.1 m/s
Vind: NV 3.1 m/s
Temperatur: 21°C
Dugpunkt: 9°C
Luftfugtighed: 46%
Barometer: 1001 hPa
Sigtbarhed: mere end 10 km
Sky detaljer: Klart
EDLV 031750Z 31006KT 280V340 CAVOK 21/09 Q1001
EHDL - Deelen Rnlafb, Netherlands
Afstand fra station: N 35 km
Opdateret: 04-06-2020 03:55
Overskyet  
Overskyet  
   Vind: NNV 3.6 m/s
Vind: NNV 3.6 m/s
Temperatur: 14°C
Dugpunkt: 12°C
Luftfugtighed: 88%
Barometer: 999 hPa
Skyet: Overskyet
Sigtbarhed: mere end 10 km
Sky detaljer: Overskyet 1000 ft
EHDL 040155Z AUTO 33007KT 260V020 9999 OVC010 14/12 Q0999 GRN
EHEH - Eindhoven Rnlafb, Netherlands
Afstand fra station: SV 48 km
Opdateret: 04-06-2020 03:55
Overskyet  
Overskyet  
   Vind: NV 3.6 m/s
Vind: NV 3.6 m/s
Temperatur: 14°C
Dugpunkt: 11°C
Luftfugtighed: 82%
Barometer: 999 hPa
Skyet: Overskyet
Sigtbarhed: mere end 10 km
Sky detaljer: Overskyet 2400 ft
EHEH 040155Z AUTO 32007KT 260V010 9999 OVC024 14/11 Q0999 WHT
EHGR - Gilze-Rijen Rnla, Netherlands
Afstand fra station: VSV 70 km
Opdateret: 04-06-2020 03:55
Overskyet  
Overskyet  
   Vind: NNV 3.6 m/s
Vind: NNV 3.6 m/s
Temperatur: 14°C
Dugpunkt: 11°C
Luftfugtighed: 82%
Barometer: 999 hPa
Skyet: Overskyet
Sigtbarhed: mere end 10 km
Sky detaljer: Overskyet 1700 ft
EHGR 040155Z AUTO 33007KT 280V030 9999 OVC017 14/11 Q0999 WHT
EBBL - Kleine-Brogel(Ba, Belgium
Afstand fra station: SSV 71 km
Opdateret: 04-06-2020 03:55
Overskyet  
Overskyet  
   Vind: VSV 1.5 m/s
Vind: VSV 1.5 m/s
Temperatur: 14°C
Dugpunkt: 12°C
Luftfugtighed: 88%
Barometer: 999 hPa
Skyet: Overskyet
Sigtbarhed: mere end 10 km
Sky detaljer: Overskyet 1400 ft
EBBL 040155Z AUTO 25003KT 9999 OVC014/// 14/12 Q0999 GRN

Script udviklet af  Saratoga-weather.org Tilpasset til denne template af  Weerstation Leuven

Du finder også vores vejrinformationer på:

UK Metoffice

European Weather Network

WeatherCloud

Weather Underground

AWEKAS

Citizen Weather Observer Program (CWOP)

HAMweather, WeatherForYou, PWS Weather

Udstyr som vi anvender:

Vejrstation
Davis VP2

Vejrprogram
Meteobridge

Vejrserver
Meteobridge Pro

Davis VP2

Meteobridge

Meteobridge Pro